Time;durP1;ratioP1;P1;durP2;ratioP2;P2;SDS_P1;SDS_P2;PMS_P1;PMS_P2;Temp;Humidity;BMP_temperature;BMP_pressure;BME280_temperature;BME280_humidity;BME280_pressure;Samples;Min_cycle;Max_cycle;Signal;HPM_P1;HPM_P2
2022/07/03 00:00:30;;;;;;;;;;;17.10;99.90;;;;;;4995462;28;20292;-64
2022/07/03 00:02:56;;;;;;;;;;;17.00;99.90;;;;;;4995893;28;19956;-64
2022/07/03 00:05:22;;;;;;;;;;;16.90;99.90;;;;;;4998344;28;19952;-64
2022/07/03 00:07:47;;;;;;;;;;;17.00;99.90;;;;;;4993707;28;20397;-64
2022/07/03 00:10:13;;;;;;;;;;;17.10;99.90;;;;;;4995163;28;20036;-64
2022/07/03 00:12:39;;;;;;;;;;;17.00;99.90;;;;;;4979736;28;19916;-64
2022/07/03 00:15:05;;;;;;;;;;;16.90;99.90;;;;;;4997502;28;19914;-64
2022/07/03 00:17:30;;;;;;;;;;;16.70;99.90;;;;;;5000020;28;19920;-64
2022/07/03 00:19:55;;;;;;;;;;;16.60;99.90;;;;;;4994940;28;19999;-64
2022/07/03 00:22:22;;;;;;;;;;;16.50;99.90;;;;;;4996670;28;20370;-64
2022/07/03 00:24:50;;;;;;;;;;;16.60;99.90;;;;;;4992522;28;20443;-64
2022/07/03 00:27:17;;;;;;;;;;;16.80;99.90;;;;;;4994932;28;19910;-64
2022/07/03 00:29:44;;;;;;;;;;;16.90;99.90;;;;;;4994560;28;20374;-64
2022/07/03 00:32:10;;;;;;;;;;;16.70;99.90;;;;;;4997426;28;19913;-64
2022/07/03 00:34:37;;;;;;;;;;;16.70;99.90;;;;;;4994108;28;19955;-64
2022/07/03 00:37:05;;;;;;;;;;;16.70;99.90;;;;;;4999260;28;19917;-64
2022/07/03 00:39:31;;;;;;;;;;;16.70;99.90;;;;;;4994024;28;19928;-64
2022/07/03 00:42:01;;;;;;;;;;;16.60;99.90;;;;;;4995229;28;20064;-64
2022/07/03 00:44:28;;;;;;;;;;;16.50;99.90;;;;;;4996946;28;20352;-64
2022/07/03 00:46:54;;;;;;;;;;;16.40;99.90;;;;;;4999905;28;20248;-64
2022/07/03 00:49:21;;;;;;;;;;;16.70;99.90;;;;;;4999692;28;20411;-64
2022/07/03 00:51:50;;;;;;;;;;;16.90;99.90;;;;;;4994910;28;19918;-64
2022/07/03 00:54:19;;;;;;;;;;;16.90;99.90;;;;;;5002285;28;19914;-64
2022/07/03 00:56:49;;;;;;;;;;;17.00;99.90;;;;;;4989777;28;20000;-64
2022/07/03 00:59:14;;;;;;;;;;;16.80;99.90;;;;;;4999663;28;20365;-64
2022/07/03 01:01:40;;;;;;;;;;;16.60;99.90;;;;;;5001755;28;19910;-64
2022/07/03 01:04:10;;;;;;;;;;;16.60;99.90;;;;;;4999577;28;19913;-64
2022/07/03 01:06:44;;;;;;;;;;;16.70;99.90;;;;;;4998944;28;19928;-64
2022/07/03 01:09:10;;;;;;;;;;;16.90;99.90;;;;;;4997589;28;20385;-64
2022/07/03 01:11:46;;;;;;;;;;;17.00;99.90;;;;;;4999741;28;19933;-64
2022/07/03 01:14:17;;;;;;;;;;;17.00;99.90;;;;;;4993839;28;20352;-64
2022/07/03 01:16:58;;;;;;;;;;;16.90;99.90;;;;;;4997038;28;19920;-64
2022/07/03 01:19:32;;;;;;;;;;;17.10;99.90;;;;;;4991119;28;19913;-64
2022/07/03 01:22:16;;;;;;;;;;;17.40;99.90;;;;;;4994990;28;20008;-64
2022/07/03 01:24:48;;;;;;;;;;;17.50;99.90;;;;;;4990949;28;19918;-64
2022/07/03 01:27:16;;;;;;;;;;;17.30;99.90;;;;;;4997881;28;19944;-64
2022/07/03 01:30:00;;;;;;;;;;;16.90;99.90;;;;;;4996193;28;19910;-64
2022/07/03 01:32:27;;;;;;;;;;;16.60;99.90;;;;;;4994339;28;19917;-64
2022/07/03 01:34:55;;;;;;;;;;;16.30;99.90;;;;;;4981029;28;19914;-64
2022/07/03 01:37:22;;;;;;;;;;;16.00;99.90;;;;;;4979275;28;19914;-64
2022/07/03 01:39:51;;;;;;;;;;;15.80;99.90;;;;;;4993425;28;20290;-64
2022/07/03 01:42:18;;;;;;;;;;;15.60;99.90;;;;;;4995305;28;19913;-64
2022/07/03 01:44:44;;;;;;;;;;;15.50;99.90;;;;;;4996492;28;19916;-64
2022/07/03 01:47:10;;;;;;;;;;;15.40;99.90;;;;;;4987484;28;19910;-64
2022/07/03 01:49:36;;;;;;;;;;;15.20;99.90;;;;;;4997972;28;19912;-64
2022/07/03 01:52:02;;;;;;;;;;;15.00;99.90;;;;;;4994795;28;19968;-64
2022/07/03 01:54:29;;;;;;;;;;;14.90;99.90;;;;;;4996222;28;19957;-64
2022/07/03 01:56:55;;;;;;;;;;;14.80;99.90;;;;;;4993754;28;19963;-64
2022/07/03 01:59:21;;;;;;;;;;;14.70;99.90;;;;;;4995989;28;20346;-64
2022/07/03 02:02:05;;;;;;;;;;;14.70;99.90;;;;;;4979753;28;20308;-64
2022/07/03 02:04:37;;;;;;;;;;;14.60;99.90;;;;;;4992489;28;20218;-64
2022/07/03 02:07:03;;;;;;;;;;;14.50;99.90;;;;;;4995215;28;19925;-64
2022/07/03 02:09:48;;;;;;;;;;;14.50;99.90;;;;;;4993357;28;20335;-64
2022/07/03 02:12:14;;;;;;;;;;;14.60;99.90;;;;;;4988981;28;19976;-64
2022/07/03 02:14:40;;;;;;;;;;;14.60;99.90;;;;;;4995020;28;19953;-64
2022/07/03 02:17:05;;;;;;;;;;;14.60;99.90;;;;;;4999368;28;20502;-64
2022/07/03 02:19:33;;;;;;;;;;;14.70;99.90;;;;;;5001003;28;19910;-64
2022/07/03 02:22:00;;;;;;;;;;;14.80;99.90;;;;;;4993904;28;19914;-64
2022/07/03 02:24:26;;;;;;;;;;;14.80;99.90;;;;;;4999719;28;20016;-64
2022/07/03 02:26:52;;;;;;;;;;;14.90;99.90;;;;;;4998957;28;20384;-64
2022/07/03 02:29:20;;;;;;;;;;;14.90;99.90;;;;;;4997963;28;19914;-64
2022/07/03 02:31:46;;;;;;;;;;;15.10;99.90;;;;;;4997352;28;20361;-64
2022/07/03 02:34:15;;;;;;;;;;;15.40;99.90;;;;;;4998562;28;19924;-64
2022/07/03 02:36:42;;;;;;;;;;;15.40;99.90;;;;;;4980755;28;19914;-64
2022/07/03 02:39:14;;;;;;;;;;;15.30;99.90;;;;;;4998590;28;19944;-64
2022/07/03 02:41:43;;;;;;;;;;;15.30;99.90;;;;;;4980224;28;19914;-64
2022/07/03 02:44:24;;;;;;;;;;;15.20;99.90;;;;;;4998808;28;19913;-64
2022/07/03 02:46:56;;;;;;;;;;;15.00;99.90;;;;;;4997831;28;19914;-64
2022/07/03 02:49:33;;;;;;;;;;;14.90;99.90;;;;;;4999688;28;20087;-64
2022/07/03 02:52:17;;;;;;;;;;;14.70;99.90;;;;;;4996992;28;19920;-64
2022/07/03 02:54:47;;;;;;;;;;;14.60;99.90;;;;;;4994935;28;20284;-64
2022/07/03 02:57:13;;;;;;;;;;;14.40;99.90;;;;;;4999672;28;19914;-64
2022/07/03 02:59:46;;;;;;;;;;;14.70;99.90;;;;;;4999499;28;19918;-64
2022/07/03 03:02:23;;;;;;;;;;;14.90;99.90;;;;;;4994745;28;20351;-64
2022/07/03 03:05:01;;;;;;;;;;;14.80;99.90;;;;;;4994436;28;19933;-64
2022/07/03 03:07:33;;;;;;;;;;;14.50;99.90;;;;;;4998051;28;20340;-64
2022/07/03 03:09:59;;;;;;;;;;;14.40;99.90;;;;;;4993274;28;20040;-64
2022/07/03 03:12:30;;;;;;;;;;;14.30;99.90;;;;;;4994936;28;19992;-64
2022/07/03 03:15:00;;;;;;;;;;;14.30;99.90;;;;;;4979743;28;19921;-64
2022/07/03 03:17:25;;;;;;;;;;;14.20;99.90;;;;;;4977436;28;19918;-64
2022/07/03 03:19:52;;;;;;;;;;;14.30;99.90;;;;;;4993652;28;20277;-64
2022/07/03 03:22:21;;;;;;;;;;;14.50;99.90;;;;;;4992503;28;19910;-64
2022/07/03 03:24:46;;;;;;;;;;;15.00;99.90;;;;;;4989804;28;19917;-63
2022/07/03 03:27:12;;;;;;;;;;;15.20;99.90;;;;;;4994057;28;20368;-63
2022/07/03 03:29:39;;;;;;;;;;;15.20;99.90;;;;;;4996008;28;19933;-64
2022/07/03 03:32:05;;;;;;;;;;;15.10;99.90;;;;;;4996983;28;20339;-64
2022/07/03 03:34:32;;;;;;;;;;;14.90;99.90;;;;;;4998611;28;20005;-64
2022/07/03 03:36:57;;;;;;;;;;;14.70;99.90;;;;;;4996365;28;20261;-64
2022/07/03 03:39:24;;;;;;;;;;;14.50;99.90;;;;;;4998052;28;19923;-64
2022/07/03 03:41:49;;;;;;;;;;;14.40;99.90;;;;;;4995952;28;19917;-64
2022/07/03 03:44:15;;;;;;;;;;;14.60;99.90;;;;;;4997126;28;19910;-64
2022/07/03 03:46:40;;;;;;;;;;;14.60;99.90;;;;;;4999439;28;20497;-65
2022/07/03 03:49:06;;;;;;;;;;;14.50;99.90;;;;;;4998316;28;19914;-64
2022/07/03 03:51:31;;;;;;;;;;;14.50;99.90;;;;;;4998295;28;19910;-64
2022/07/03 03:53:57;;;;;;;;;;;14.40;99.90;;;;;;4998357;28;19918;-64
2022/07/03 03:56:23;;;;;;;;;;;14.30;99.90;;;;;;4986877;28;19964;-64
2022/07/03 03:58:49;;;;;;;;;;;14.30;99.90;;;;;;4998172;28;20344;-64
2022/07/03 04:01:14;;;;;;;;;;;14.20;99.90;;;;;;4997025;28;19914;-64
2022/07/03 04:03:40;;;;;;;;;;;14.30;99.90;;;;;;5002214;28;19916;-64
2022/07/03 04:06:06;;;;;;;;;;;14.30;99.90;;;;;;4999459;28;19910;-64
2022/07/03 04:08:32;;;;;;;;;;;14.50;99.90;;;;;;4997827;28;19932;-64
2022/07/03 04:10:57;;;;;;;;;;;14.60;99.90;;;;;;4997722;28;19997;-64
2022/07/03 04:13:23;;;;;;;;;;;14.70;99.90;;;;;;4999029;28;19976;-64
2022/07/03 04:15:49;;;;;;;;;;;14.80;99.90;;;;;;4997312;28;20412;-64
2022/07/03 04:18:15;;;;;;;;;;;14.90;99.90;;;;;;4995451;28;20015;-64
2022/07/03 04:20:40;;;;;;;;;;;15.20;99.90;;;;;;4996928;28;19957;-64
2022/07/03 04:23:06;;;;;;;;;;;15.30;99.90;;;;;;4997055;28;19910;-64
2022/07/03 04:25:31;;;;;;;;;;;15.60;99.90;;;;;;4997378;28;19909;-64
2022/07/03 04:27:57;;;;;;;;;;;15.90;99.90;;;;;;4997318;28;19916;-64
2022/07/03 04:30:23;;;;;;;;;;;16.10;99.90;;;;;;5001624;28;20327;-64
2022/07/03 04:32:49;;;;;;;;;;;16.40;99.90;;;;;;4997364;28;20308;-64
2022/07/03 04:35:15;;;;;;;;;;;16.60;99.90;;;;;;4996481;28;20299;-64
2022/07/03 04:37:41;;;;;;;;;;;16.80;99.90;;;;;;4999047;28;20007;-64
2022/07/03 04:40:07;;;;;;;;;;;16.90;99.90;;;;;;4993103;28;20361;-64
2022/07/03 04:42:33;;;;;;;;;;;17.10;99.90;;;;;;4999257;28;19996;-64
2022/07/03 04:44:58;;;;;;;;;;;17.20;99.90;;;;;;4996502;28;20005;-64
2022/07/03 04:47:24;;;;;;;;;;;17.40;99.90;;;;;;4996536;28;19913;-64
2022/07/03 04:49:49;;;;;;;;;;;17.50;99.90;;;;;;4996529;28;19913;-64
2022/07/03 04:52:15;;;;;;;;;;;17.50;99.90;;;;;;4995030;28;20289;-64
2022/07/03 04:54:40;;;;;;;;;;;17.50;99.90;;;;;;4998658;28;19910;-64
2022/07/03 04:57:06;;;;;;;;;;;17.40;99.90;;;;;;4987146;28;20115;-64
2022/07/03 04:59:31;;;;;;;;;;;17.50;99.90;;;;;;4997795;28;19910;-64
2022/07/03 05:01:57;;;;;;;;;;;17.60;99.90;;;;;;4997523;28;20546;-64
2022/07/03 05:04:22;;;;;;;;;;;17.80;99.90;;;;;;4998902;28;19917;-64
2022/07/03 05:06:48;;;;;;;;;;;18.00;99.90;;;;;;5001858;28;19968;-64
2022/07/03 05:09:13;;;;;;;;;;;18.10;99.90;;;;;;4995963;28;19918;-64
2022/07/03 05:11:39;;;;;;;;;;;18.20;99.90;;;;;;4997942;28;20423;-64
2022/07/03 05:14:05;;;;;;;;;;;18.20;99.90;;;;;;5000943;28;19914;-64
2022/07/03 05:16:31;;;;;;;;;;;18.30;99.90;;;;;;4995999;28;19941;-64
2022/07/03 05:18:56;;;;;;;;;;;18.60;99.90;;;;;;4994733;28;19910;-64
2022/07/03 05:21:22;;;;;;;;;;;18.80;99.90;;;;;;4997774;28;19913;-64
2022/07/03 05:23:47;;;;;;;;;;;19.10;99.90;;;;;;4998071;28;20328;-64
2022/07/03 05:26:13;;;;;;;;;;;19.30;99.90;;;;;;4994012;28;19911;-64
2022/07/03 05:28:39;;;;;;;;;;;19.40;99.90;;;;;;4995709;28;19920;-64
2022/07/03 05:31:04;;;;;;;;;;;19.50;99.90;;;;;;4996937;28;19960;-63
2022/07/03 05:33:30;;;;;;;;;;;19.40;99.90;;;;;;4995209;28;20361;-64
2022/07/03 05:35:56;;;;;;;;;;;19.30;99.90;;;;;;4991502;28;19938;-64
2022/07/03 05:41:05;;;;;;;;;;;19.30;99.90;;;;;;4995980;28;19980;-64
2022/07/03 05:43:30;;;;;;;;;;;19.30;99.90;;;;;;4993052;28;20328;-64
2022/07/03 05:45:56;;;;;;;;;;;19.40;99.90;;;;;;4998694;28;19909;-64
2022/07/03 05:48:22;;;;;;;;;;;19.40;99.90;;;;;;4993334;28;19917;-64
2022/07/03 05:50:47;;;;;;;;;;;19.60;99.90;;;;;;4993921;28;20393;-64
2022/07/03 05:53:13;;;;;;;;;;;19.60;99.90;;;;;;4996255;28;19956;-64
2022/07/03 05:55:38;;;;;;;;;;;19.70;99.90;;;;;;4995072;28;19917;-64
2022/07/03 05:58:03;;;;;;;;;;;19.90;99.90;;;;;;4995749;28;20007;-64
2022/07/03 06:00:29;;;;;;;;;;;20.00;99.90;;;;;;4993265;28;19918;-64
2022/07/03 06:02:55;;;;;;;;;;;20.20;99.90;;;;;;4995838;28;19910;-64
2022/07/03 06:05:20;;;;;;;;;;;20.40;99.90;;;;;;4995518;28;19915;-63
2022/07/03 06:07:46;;;;;;;;;;;20.60;99.90;;;;;;4993303;28;19929;-64
2022/07/03 06:10:11;;;;;;;;;;;20.90;99.90;;;;;;4986913;28;19920;-64
2022/07/03 06:12:37;;;;;;;;;;;21.30;99.90;;;;;;4992658;28;19917;-64
2022/07/03 06:15:02;;;;;;;;;;;21.80;99.90;;;;;;4994874;28;19932;-64
2022/07/03 06:17:28;;;;;;;;;;;22.30;99.90;;;;;;4996895;28;19965;-64
2022/07/03 06:19:54;;;;;;;;;;;22.40;99.90;;;;;;4994004;28;19918;-64
2022/07/03 06:22:19;;;;;;;;;;;22.60;99.90;;;;;;4992225;28;19913;-64
2022/07/03 06:24:44;;;;;;;;;;;22.60;99.90;;;;;;4994440;28;19957;-64
2022/07/03 06:27:10;;;;;;;;;;;22.70;99.90;;;;;;4996311;28;19944;-64
2022/07/03 06:29:35;;;;;;;;;;;22.70;99.90;;;;;;4998685;28;19914;-64
2022/07/03 06:32:01;;;;;;;;;;;22.60;99.90;;;;;;4999154;28;19910;-64
2022/07/03 06:34:26;;;;;;;;;;;22.30;99.90;;;;;;4996373;28;19960;-63
2022/07/03 06:36:52;;;;;;;;;;;22.10;99.90;;;;;;4999452;28;19914;-64
2022/07/03 06:39:17;;;;;;;;;;;21.80;99.90;;;;;;4994509;28;20473;-64
2022/07/03 06:41:43;;;;;;;;;;;21.40;99.90;;;;;;4994076;28;20458;-64
2022/07/03 06:44:09;;;;;;;;;;;21.20;99.90;;;;;;4998976;28;19920;-64
2022/07/03 06:46:34;;;;;;;;;;;21.10;99.90;;;;;;4999663;28;19932;-64
2022/07/03 06:49:00;;;;;;;;;;;21.00;99.90;;;;;;4997923;28;19917;-64
2022/07/03 06:51:25;;;;;;;;;;;20.80;99.90;;;;;;4994647;28;19924;-64
2022/07/03 06:53:51;;;;;;;;;;;20.80;99.90;;;;;;4998150;28;20340;-64
2022/07/03 06:56:16;;;;;;;;;;;20.80;99.90;;;;;;4988858;28;19910;-64
2022/07/03 06:58:42;;;;;;;;;;;20.90;99.90;;;;;;4997590;28;19921;-63
2022/07/03 07:01:07;;;;;;;;;;;20.80;99.90;;;;;;4991062;28;19913;-64
2022/07/03 07:03:33;;;;;;;;;;;20.70;99.90;;;;;;4997442;28;19913;-64
2022/07/03 07:05:58;;;;;;;;;;;20.80;99.90;;;;;;4998233;28;19914;-63
2022/07/03 07:08:24;;;;;;;;;;;20.80;99.90;;;;;;4994072;28;19926;-64
2022/07/03 07:10:49;;;;;;;;;;;21.00;99.90;;;;;;4997812;28;19949;-64
2022/07/03 07:13:15;;;;;;;;;;;21.20;99.90;;;;;;4995060;28;20372;-64
2022/07/03 07:15:40;;;;;;;;;;;21.40;99.90;;;;;;4996688;28;20361;-64
2022/07/03 07:18:06;;;;;;;;;;;21.50;99.90;;;;;;4998449;28;19913;-64
2022/07/03 07:20:31;;;;;;;;;;;21.60;99.90;;;;;;4995153;28;20281;-64
2022/07/03 07:22:57;;;;;;;;;;;21.60;99.90;;;;;;4999816;28;19934;-64
2022/07/03 07:25:22;;;;;;;;;;;21.50;99.90;;;;;;5002908;28;19991;-64
2022/07/03 07:27:48;;;;;;;;;;;21.40;99.90;;;;;;4999495;28;19913;-64
2022/07/03 07:30:13;;;;;;;;;;;21.50;99.90;;;;;;4998372;28;19918;-64
2022/07/03 07:32:39;;;;;;;;;;;21.30;99.90;;;;;;4994198;28;19910;-64
2022/07/03 07:35:05;;;;;;;;;;;21.40;99.90;;;;;;5001008;28;19909;-64
2022/07/03 07:37:31;;;;;;;;;;;21.50;99.90;;;;;;4999146;28;19913;-64
2022/07/03 07:39:56;;;;;;;;;;;21.60;99.90;;;;;;4998093;28;19972;-64
2022/07/03 07:42:22;;;;;;;;;;;21.60;99.90;;;;;;4998392;28;19910;-64
2022/07/03 07:44:48;;;;;;;;;;;21.70;99.90;;;;;;4995680;28;19918;-64
2022/07/03 07:47:13;;;;;;;;;;;21.80;99.90;;;;;;4999152;28;19917;-64
2022/07/03 07:49:39;;;;;;;;;;;22.10;99.90;;;;;;4996098;28;19949;-64
2022/07/03 07:52:04;;;;;;;;;;;22.00;99.90;;;;;;4997573;28;19913;-64
2022/07/03 07:54:30;;;;;;;;;;;22.00;99.90;;;;;;4980277;28;19924;-64
2022/07/03 07:56:55;;;;;;;;;;;22.10;99.90;;;;;;4997731;28;19910;-64
2022/07/03 07:59:21;;;;;;;;;;;22.10;99.90;;;;;;4985776;28;20386;-64
2022/07/03 08:07:15;;;;;;;;;;;22.60;99.90;;;;;;4994805;28;19941;-64
2022/07/03 08:09:40;;;;;;;;;;;22.60;99.90;;;;;;4995999;28;19913;-64
2022/07/03 08:12:06;;;;;;;;;;;22.70;99.90;;;;;;4996028;28;20008;-64
2022/07/03 08:14:31;;;;;;;;;;;23.00;99.90;;;;;;4995069;28;19917;-64
2022/07/03 08:16:57;;;;;;;;;;;23.50;99.90;;;;;;4999008;28;19972;-64
2022/07/03 08:19:22;;;;;;;;;;;23.70;99.90;;;;;;5000992;28;20457;-64
2022/07/03 08:21:48;;;;;;;;;;;23.90;99.90;;;;;;4996160;28;19924;-64
2022/07/03 08:24:16;;;;;;;;;;;24.20;99.80;;;;;;5001007;28;19925;-64
2022/07/03 08:26:41;;;;;;;;;;;24.90;99.10;;;;;;5000570;28;19910;-65
2022/07/03 08:29:07;;;;;;;;;;;25.30;97.90;;;;;;4990950;28;20290;-64
2022/07/03 08:31:32;;;;;;;;;;;25.90;97.20;;;;;;4991554;28;20351;-64
2022/07/03 08:33:58;;;;;;;;;;;26.10;96.00;;;;;;4992225;28;20445;-64
2022/07/03 08:36:23;;;;;;;;;;;25.90;95.80;;;;;;4999562;28;19920;-64
2022/07/03 08:38:49;;;;;;;;;;;25.90;95.70;;;;;;5008263;28;19924;-64
2022/07/03 08:41:15;;;;;;;;;;;26.10;95.00;;;;;;4997262;28;19926;-65
2022/07/03 08:43:42;;;;;;;;;;;26.40;94.90;;;;;;4991764;28;19910;-65
2022/07/03 08:46:09;;;;;;;;;;;27.10;94.00;;;;;;4992776;28;19914;-65
2022/07/03 08:48:35;;;;;;;;;;;27.60;93.10;;;;;;4992740;28;20314;-65
2022/07/03 08:51:01;;;;;;;;;;;27.60;92.80;;;;;;4990946;28;19917;-65
2022/07/03 08:53:26;;;;;;;;;;;27.40;92.40;;;;;;4995691;28;19917;-65
2022/07/03 08:55:52;;;;;;;;;;;26.90;93.00;;;;;;5001074;28;19910;-65
2022/07/03 08:58:19;;;;;;;;;;;27.30;92.50;;;;;;4984984;28;20409;-64
2022/07/03 09:00:45;;;;;;;;;;;27.30;92.00;;;;;;4992307;28;20643;-64
2022/07/03 09:03:11;;;;;;;;;;;27.10;92.40;;;;;;5000827;28;19913;-65
2022/07/03 09:05:37;;;;;;;;;;;27.80;91.80;;;;;;4996159;28;20045;-65
2022/07/03 09:08:05;;;;;;;;;;;27.60;90.80;;;;;;4975433;28;20501;-64
2022/07/03 09:10:31;;;;;;;;;;;27.20;91.50;;;;;;4989451;28;20309;-64
2022/07/03 09:12:57;;;;;;;;;;;27.40;90.70;;;;;;4996015;28;19916;-64
2022/07/03 09:15:23;;;;;;;;;;;27.30;90.90;;;;;;4996988;28;19916;-64
2022/07/03 09:18:00;;;;;;;;;;;27.40;91.00;;;;;;4972429;28;20012;-64
2022/07/03 09:20:30;;;;;;;;;;;28.10;91.10;;;;;;4991238;28;19936;-64
2022/07/03 09:23:07;;;;;;;;;;;28.70;88.20;;;;;;4993601;28;19909;-64
2022/07/03 09:25:33;;;;;;;;;;;29.00;87.20;;;;;;4976437;28;19914;-64
2022/07/03 09:27:58;;;;;;;;;;;29.30;87.40;;;;;;4973447;28;20361;-64
2022/07/03 09:30:24;;;;;;;;;;;30.00;84.20;;;;;;4990752;28;19910;-65
2022/07/03 09:32:49;;;;;;;;;;;29.80;84.60;;;;;;4989096;28;19914;-64
2022/07/03 09:35:17;;;;;;;;;;;30.00;83.70;;;;;;4989166;28;19916;-64
2022/07/03 09:37:52;;;;;;;;;;;29.70;83.90;;;;;;4989158;28;19922;-64
2022/07/03 09:40:18;;;;;;;;;;;28.70;85.10;;;;;;4987825;28;19918;-65
2022/07/03 09:42:56;;;;;;;;;;;28.90;84.30;;;;;;4988228;28;19928;-65
2022/07/03 09:45:22;;;;;;;;;;;29.60;83.50;;;;;;4995811;28;20004;-64
2022/07/03 09:47:47;;;;;;;;;;;29.50;83.30;;;;;;5003091;28;20449;-64
2022/07/03 09:50:13;;;;;;;;;;;29.10;84.40;;;;;;5000064;28;19956;-64
2022/07/03 09:52:48;;;;;;;;;;;29.70;82.50;;;;;;4982010;28;19914;-64
2022/07/03 09:55:18;;;;;;;;;;;29.80;82.10;;;;;;4999102;28;19921;-64
2022/07/03 09:57:49;;;;;;;;;;;30.60;81.20;;;;;;5000235;28;20259;-64
2022/07/03 10:00:20;;;;;;;;;;;30.40;80.20;;;;;;4998908;28;19913;-64
2022/07/03 10:03:03;;;;;;;;;;;30.50;80.90;;;;;;4996886;28;19909;-64
2022/07/03 10:05:38;;;;;;;;;;;30.70;79.40;;;;;;4983031;28;19919;-64
2022/07/03 10:08:11;;;;;;;;;;;30.00;80.00;;;;;;4993486;28;20330;-64
2022/07/03 10:10:38;;;;;;;;;;;30.00;80.80;;;;;;4994606;28;19972;-64
2022/07/03 10:13:04;;;;;;;;;;;29.90;79.50;;;;;;5000886;28;19944;-65
2022/07/03 10:15:31;;;;;;;;;;;29.50;80.00;;;;;;5000784;28;20275;-64
2022/07/03 10:17:57;;;;;;;;;;;29.80;79.80;;;;;;4996827;28;20325;-65
2022/07/03 10:20:45;;;;;;;;;;;30.90;78.00;;;;;;4997749;28;19967;-65
2022/07/03 10:23:11;;;;;;;;;;;31.10;77.70;;;;;;4994779;28;19917;-65
2022/07/03 10:25:40;;;;;;;;;;;30.70;78.50;;;;;;4998898;28;19913;-64
2022/07/03 10:28:06;;;;;;;;;;;30.20;79.10;;;;;;4999635;28;19909;-64
2022/07/03 10:30:32;;;;;;;;;;;30.70;77.20;;;;;;4996646;28;19963;-64
2022/07/03 10:32:58;;;;;;;;;;;30.80;78.20;;;;;;5001926;28;20453;-65
2022/07/03 10:35:33;;;;;;;;;;;31.60;75.60;;;;;;4995705;28;20166;-64
2022/07/03 10:38:02;;;;;;;;;;;31.00;76.10;;;;;;4993815;28;19967;-65
2022/07/03 10:46:08;;;;;;;;;;;31.70;74.40;;;;;;5000596;28;19960;-65
2022/07/03 10:48:52;;;;;;;;;;;31.20;75.50;;;;;;4995364;28;20325;-65
2022/07/03 10:51:18;;;;;;;;;;;31.80;74.70;;;;;;4998473;28;19916;-65
2022/07/03 10:53:43;;;;;;;;;;;32.20;73.40;;;;;;4998857;28;20008;-65
2022/07/03 10:56:09;;;;;;;;;;;32.60;73.40;;;;;;4997111;28;19913;-65
2022/07/03 10:58:56;;;;;;;;;;;31.20;75.20;;;;;;4997402;28;20261;-65
2022/07/03 11:01:29;;;;;;;;;;;31.40;74.10;;;;;;4997959;28;19913;-65
2022/07/03 11:03:57;;;;;;;;;;;32.40;73.80;;;;;;5000791;28;19920;-65
2022/07/03 11:06:41;;;;;;;;;;;32.10;70.50;;;;;;4998361;28;19910;-65
2022/07/03 11:09:08;;;;;;;;;;;32.90;71.40;;;;;;4996116;28;19925;-65
2022/07/03 11:11:55;;;;;;;;;;;32.20;71.40;;;;;;4974583;28;19965;-65
2022/07/03 11:14:27;;;;;;;;;;;31.70;72.90;;;;;;4998480;28;19916;-65
2022/07/03 11:17:11;;;;;;;;;;;33.10;70.40;;;;;;4993407;28;19920;-65
2022/07/03 11:19:37;;;;;;;;;;;32.90;70.50;;;;;;4997194;28;19922;-65
2022/07/03 11:22:05;;;;;;;;;;;33.20;69.10;;;;;;4978063;28;19910;-65
2022/07/03 11:24:43;;;;;;;;;;;34.10;68.20;;;;;;4993398;28;20428;-65
2022/07/03 11:27:19;;;;;;;;;;;33.90;67.80;;;;;;4982781;28;20375;-65
2022/07/03 11:29:53;;;;;;;;;;;33.60;66.80;;;;;;4996616;28;19909;-65
2022/07/03 11:32:51;;;;;;;;;;;32.60;67.70;;;;;;4998636;28;19918;-65
2022/07/03 11:35:35;;;;;;;;;;;31.70;68.60;;;;;;4949656;28;19909;-64
2022/07/03 11:38:00;;;;;;;;;;;30.70;70.10;;;;;;4997125;28;19913;-64
2022/07/03 11:40:28;;;;;;;;;;;32.70;68.70;;;;;;4997770;28;20415;-64
2022/07/03 11:42:55;;;;;;;;;;;33.20;66.30;;;;;;4995827;28;20329;-64
2022/07/03 11:45:20;;;;;;;;;;;32.20;66.40;;;;;;4995212;28;20189;-65
2022/07/03 11:47:46;;;;;;;;;;;31.70;67.90;;;;;;5003746;28;20012;-64
2022/07/03 11:50:12;;;;;;;;;;;32.00;66.20;;;;;;5000825;28;19910;-64
2022/07/03 11:52:38;;;;;;;;;;;30.90;68.30;;;;;;4999690;28;19960;-64
2022/07/03 11:55:03;;;;;;;;;;;29.30;71.80;;;;;;5003547;28;19914;-64
2022/07/03 11:57:29;;;;;;;;;;;29.60;72.00;;;;;;4997552;28;19923;-64
2022/07/03 12:00:03;;;;;;;;;;;30.50;71.10;;;;;;4978371;28;20344;-64
2022/07/03 12:02:28;;;;;;;;;;;31.20;70.20;;;;;;4990005;28;19937;-64
2022/07/03 12:04:54;;;;;;;;;;;31.90;70.10;;;;;;5000177;28;19912;-64
2022/07/03 12:07:19;;;;;;;;;;;32.60;69.60;;;;;;5000602;28;19983;-64
2022/07/03 12:09:49;;;;;;;;;;;33.30;68.80;;;;;;4998519;28;19917;-64
2022/07/03 12:12:15;;;;;;;;;;;32.10;68.30;;;;;;4984786;28;19909;-64
2022/07/03 12:14:42;;;;;;;;;;;31.70;69.50;;;;;;4977599;28;19910;-64
2022/07/03 12:17:09;;;;;;;;;;;32.20;68.50;;;;;;4996358;28;20452;-64
2022/07/03 12:19:35;;;;;;;;;;;31.60;68.40;;;;;;4978342;28;20284;-64
2022/07/03 12:22:01;;;;;;;;;;;30.50;69.40;;;;;;4992826;28;20012;-64
2022/07/03 12:24:26;;;;;;;;;;;30.60;70.60;;;;;;5001906;28;19913;-64
2022/07/03 12:26:52;;;;;;;;;;;31.40;68.70;;;;;;4997956;28;19913;-64
2022/07/03 12:29:18;;;;;;;;;;;32.70;66.40;;;;;;5000265;28;20005;-64
2022/07/03 12:31:44;;;;;;;;;;;31.70;66.80;;;;;;4997500;28;19909;-64
2022/07/03 12:34:10;;;;;;;;;;;32.20;68.60;;;;;;5000813;28;20044;-64
2022/07/03 12:36:36;;;;;;;;;;;31.60;67.60;;;;;;4997583;28;20401;-64
2022/07/03 12:39:02;;;;;;;;;;;32.20;67.40;;;;;;4991290;28;19964;-64
2022/07/03 12:41:28;;;;;;;;;;;32.40;66.50;;;;;;4977363;28;19933;-64
2022/07/03 12:43:54;;;;;;;;;;;31.80;67.30;;;;;;4990824;28;19921;-64
2022/07/03 12:46:26;;;;;;;;;;;33.60;66.30;;;;;;4996147;28;20448;-64
2022/07/03 12:48:56;;;;;;;;;;;33.20;65.60;;;;;;4993404;28;20353;-64
2022/07/03 12:51:39;;;;;;;;;;;33.20;65.00;;;;;;4980476;28;19916;-64
2022/07/03 12:54:06;;;;;;;;;;;33.20;65.80;;;;;;4985079;28;19922;-64
2022/07/03 12:56:31;;;;;;;;;;;34.50;62.40;;;;;;4994316;28;19921;-64
2022/07/03 13:01:41;;;;;;;;;;;31.70;65.90;;;;;;4992447;28;19925;-64
2022/07/03 13:04:14;;;;;;;;;;;32.70;65.20;;;;;;4997743;28;19914;-64
2022/07/03 13:06:45;;;;;;;;;;;32.40;64.30;;;;;;4990154;28;19929;-64
2022/07/03 13:09:11;;;;;;;;;;;33.80;64.60;;;;;;4974206;28;19934;-64
2022/07/03 13:11:37;;;;;;;;;;;33.50;63.40;;;;;;4996189;28;19919;-64
2022/07/03 13:14:11;;;;;;;;;;;32.20;63.20;;;;;;4996058;28;20250;-64
2022/07/03 13:16:46;;;;;;;;;;;33.50;63.90;;;;;;4994756;28;19910;-64
2022/07/03 13:19:12;;;;;;;;;;;34.30;64.10;;;;;;4996883;28;19918;-64
2022/07/03 13:21:38;;;;;;;;;;;35.70;62.10;;;;;;4995893;28;20440;-64
2022/07/03 13:24:05;;;;;;;;;;;36.30;60.50;;;;;;4996548;28;20022;-64
2022/07/03 13:26:30;;;;;;;;;;;34.00;61.00;;;;;;4976069;28;20338;-64
2022/07/03 13:28:56;;;;;;;;;;;34.40;61.60;;;;;;4994075;28;19913;-64
2022/07/03 13:31:21;;;;;;;;;;;34.40;61.50;;;;;;4993037;28;20380;-64
2022/07/03 13:33:47;;;;;;;;;;;34.80;62.60;;;;;;4994058;28;20882;-64
2022/07/03 13:36:12;;;;;;;;;;;35.30;60.80;;;;;;4998641;28;20392;-64
2022/07/03 13:38:38;;;;;;;;;;;35.60;60.40;;;;;;4995253;28;19925;-64
2022/07/03 13:41:03;;;;;;;;;;;34.60;61.20;;;;;;4989683;28;19930;-64
2022/07/03 13:43:29;;;;;;;;;;;34.30;61.80;;;;;;4992242;28;19917;-64
2022/07/03 13:45:54;;;;;;;;;;;33.10;61.40;;;;;;4990558;28;20020;-64
2022/07/03 13:48:20;;;;;;;;;;;34.60;61.70;;;;;;4972682;28;19920;-64
2022/07/03 13:50:46;;;;;;;;;;;34.80;60.20;;;;;;4989460;28;19910;-64
2022/07/03 13:53:12;;;;;;;;;;;32.70;61.50;;;;;;4991928;28;19945;-64
2022/07/03 13:55:40;;;;;;;;;;;30.70;64.70;;;;;;4992094;28;19913;-64
2022/07/03 13:58:07;;;;;;;;;;;29.80;65.90;;;;;;4994030;28;19909;-64
2022/07/03 14:00:33;;;;;;;;;;;29.10;66.90;;;;;;4994237;28;19914;-64
2022/07/03 14:02:59;;;;;;;;;;;29.20;66.50;;;;;;4990242;28;19976;-64
2022/07/03 14:05:25;;;;;;;;;;;29.00;68.00;;;;;;4998098;28;20408;-64
2022/07/03 14:07:50;;;;;;;;;;;29.10;68.20;;;;;;4992156;28;19921;-64
2022/07/03 14:10:16;;;;;;;;;;;29.30;68.00;;;;;;4979883;28;19918;-64
2022/07/03 14:12:41;;;;;;;;;;;29.80;66.60;;;;;;4989905;28;19950;-64
2022/07/03 14:15:07;;;;;;;;;;;30.60;67.20;;;;;;4994685;28;20339;-64
2022/07/03 14:17:32;;;;;;;;;;;32.30;65.10;;;;;;4992588;28;19941;-64
2022/07/03 14:19:58;;;;;;;;;;;32.20;63.80;;;;;;4993926;28;20420;-64
2022/07/03 14:22:23;;;;;;;;;;;32.50;62.90;;;;;;4995916;28;20036;-64
2022/07/03 14:24:49;;;;;;;;;;;30.90;64.20;;;;;;4994330;28;19918;-64
2022/07/03 14:32:43;;;;;;;;;;;29.20;66.70;;;;;;4996546;28;20041;-64
2022/07/03 14:35:08;;;;;;;;;;;30.00;66.90;;;;;;4993257;28;20037;-64
2022/07/03 14:37:34;;;;;;;;;;;29.80;65.90;;;;;;4991202;28;19918;-64
2022/07/03 14:39:59;;;;;;;;;;;29.90;66.20;;;;;;4988656;28;19921;-64